Garrett, PA

8:37 AM EST on February 13, 2016 (GMT -0500)
Buffalo Creek Rd. | | Change Station
CLOSE
Current Station
Personal Weather Station
Location: Berlin, PA
Elevation: 2083 ft
Nearby Weather Stations

Elev 2083 ft 39.90 °N, 78.99 °W | Updated 23 seconds ago

Mostly Cloudy
Mostly Cloudy
3.7 °F
Feels Like -12 °F
N
10.5
Wind Variable Wind from WNW
Gusts 12.3 mph

Today
High -- | Low -- °F
--% Chance of Precip.
Yesterday
High -- | Low -- °F
Precip. -- in
Pressure 30.29 in
Visibility 4.0 miles
Clouds Scattered Clouds 800 ft
Overcast 1300 ft
Windchill -12 °F
Dew Point -12 °F
Humidity 46%
Rainfall 0.00 in
Snow Depth Not available.
7:11 AM 5:49 PM
Waxing Crescent, 30% visible
METAR KCBE 131324Z AUTO 34012G19KT 4SM SCT008 OVC013 M10/M16 A3029 RMK AO1
Pressure 30.29 in
Visibility 4.0 miles
Clouds Scattered Clouds 800 ft
Overcast 1300 ft
Windchill -12 °F
Dew Point -12 °F
Humidity 46%
Rainfall 0.00 in
Snow Depth Not available.
7:11 AM 5:49 PM
Waxing Crescent, 30% visible
METAR KCBE 131324Z AUTO 34012G19KT 4SM SCT008 OVC013 M10/M16 A3029 RMK AO1

10-Day Weather Forecast

Almanac

Astronomy

Feb. 13, 2016 Rise Set
Actual Time
Civil Twilight
Nautical Twilight
Astronomical Twilight
Moon
Length of Visible Light
Length of Day
Tomorrow will be .
, % of the Moon is Illuminated

Today's Extremes

State Highs State Lows

Community

WunderPhotos

Upload Photos

1,892,547 photos uploaded!

WunderBlog® & News

Nearby

Air Quality

  Air Quality AQ Index Pollutant
Not available.

Snow Depth

Station Depth Elevation

Earthquake Activity

City Distance Mag. Time & Date
Minimum magnitude displayed is 2.5.

Coastal Water Temperatures

Place Temperature

Stations

Nearby Weather Stations

Station Location Temp. Windchill Dew Point Humidity Wind Precip. Elev Updated Type
                   

Watches & Warnings

Winter Weather Advisory, Wind Chill Advisory
Issued: 6:24 AM EST Feb. 13, 2016 – National Weather Service

... Winter Weather Advisory now in effect until 7 PM EST this
evening...
... Wind Chill Advisory remains in effect until 11 am EST Sunday...

* locations... the Laurel Highlands.

* Hazard types... snow and dangerously cold wind chills.

* Wind chills... 15 to 20 below zero today. 20 to 25 below zero
tonight.

* Snow accumulations... an additional 1 to 2 inches.

* Timing... the snow will taper off this evening. However... the
dangerous wind chills will last through Sunday morning.

* Impacts... snow covered and hazardous Road conditions... along
with potential frostbite to exposed skin in just 15 to 30
minutes.


Precautionary/preparedness actions...

If you will be outdoors... dress in layers and wear a hat and
gloves. Young children... the elderly and the homeless are
especially vulnerable to the cold. Appropriate action should be
taken to ensure pets have adequate protection from the cold
temperatures.